createdAt,value
2023-06-06T00:00:43.205Z,52.70
2023-06-06T00:05:46.157Z,53.47
2023-06-06T00:10:48.547Z,53.07
2023-06-06T00:15:50.992Z,53.57
2023-06-06T00:20:55.574Z,52.60
2023-06-06T00:25:57.973Z,52.36
2023-06-06T00:31:01.597Z,51.77
2023-06-06T00:36:05.345Z,51.46
2023-06-06T00:41:08.010Z,51.52
2023-06-06T00:46:13.551Z,50.94
2023-06-06T00:51:16.494Z,51.10
2023-06-06T00:56:21.263Z,51.61
2023-06-06T01:01:25.060Z,50.51
2023-06-06T01:06:35.435Z,50.50
2023-06-06T01:12:00.127Z,50.51
2023-06-06T01:17:05.237Z,49.94
2023-06-06T01:22:07.560Z,50.82
2023-06-06T01:27:11.759Z,51.02
2023-06-06T01:32:42.965Z,50.95
2023-06-06T01:37:53.969Z,50.73
2023-06-06T01:42:58.480Z,50.82
2023-06-06T01:48:02.533Z,51.06
2023-06-06T01:53:06.950Z,50.90
2023-06-06T01:58:11.319Z,51.11
2023-06-06T02:03:13.861Z,51.10
2023-06-06T02:08:17.673Z,51.33
2023-06-06T02:13:20.024Z,51.78
2023-06-06T02:18:23.133Z,51.10
2023-06-06T02:23:47.056Z,51.44
2023-06-06T02:28:49.401Z,51.12
2023-06-06T02:33:51.925Z,50.57
2023-06-06T02:38:55.538Z,49.43
2023-06-06T02:43:58.482Z,48.12
2023-06-06T02:49:01.601Z,47.79
2023-06-06T02:54:04.632Z,47.55
2023-06-06T02:59:11.145Z,47.51
2023-06-06T03:04:14.857Z,45.92
2023-06-06T03:09:21.088Z,43.16
2023-06-06T03:14:23.832Z,40.28
2023-06-06T03:19:26.903Z,38.07
2023-06-06T03:24:31.152Z,35.70
2023-06-06T03:29:33.631Z,34.23
2023-06-06T03:34:37.402Z,32.61
2023-06-06T03:39:41.056Z,31.78
2023-06-06T03:44:46.052Z,30.39
2023-06-06T03:49:49.445Z,29.77
2023-06-06T03:54:53.054Z,29.36
2023-06-06T03:59:55.596Z,28.50
2023-06-06T04:05:02.620Z,27.53
2023-06-06T04:10:07.623Z,27.94
2023-06-06T04:15:13.289Z,26.88
2023-06-06T04:20:16.701Z,25.94
2023-06-06T04:25:20.828Z,24.98
2023-06-06T04:30:26.935Z,24.96
2023-06-06T04:35:30.393Z,24.87
2023-06-06T04:40:47.748Z,24.79
2023-06-06T04:45:59.467Z,23.88
2023-06-06T04:51:02.602Z,24.28
2023-06-06T04:56:07.560Z,23.44
2023-06-06T05:01:12.478Z,24.42
2023-06-06T05:06:15.781Z,22.28
2023-06-06T05:11:20.637Z,22.25
2023-06-06T05:16:23.928Z,22.31
2023-06-06T05:21:27.658Z,21.88
2023-06-06T05:26:32.288Z,21.85
2023-06-06T05:31:38.347Z,20.76
2023-06-06T05:36:45.074Z,22.04
2023-06-06T05:41:52.187Z,19.99
2023-06-06T05:46:57.913Z,19.70
2023-06-06T05:52:02.618Z,19.58
2023-06-06T05:57:19.240Z,18.97
2023-06-06T06:02:24.277Z,18.96
2023-06-06T06:07:29.618Z,18.93
2023-06-06T06:12:32.102Z,18.11
2023-06-06T06:17:35.867Z,16.64
2023-06-06T06:22:41.666Z,17.14
2023-06-06T06:27:48.804Z,15.94
2023-06-06T06:32:52.264Z,15.56
2023-06-06T06:37:55.724Z,15.54
2023-06-06T06:42:58.129Z,15.75
2023-06-06T06:48:10.187Z,16.79
2023-06-06T06:53:15.600Z,16.04
2023-06-06T06:58:27.229Z,15.80
2023-06-06T07:03:31.337Z,15.56
2023-06-06T07:08:35.161Z,16.03
2023-06-06T07:13:37.572Z,16.06
2023-06-06T07:18:42.129Z,16.41
2023-06-06T07:23:44.517Z,16.40
2023-06-06T07:28:48.418Z,16.22
2023-06-06T07:33:51.870Z,17.03
2023-06-06T07:38:55.531Z,17.07
2023-06-06T07:44:03.634Z,17.65
2023-06-06T07:49:07.742Z,17.78
2023-06-06T07:54:12.889Z,17.83
2023-06-06T07:59:19.260Z,17.66
2023-06-06T08:04:34.725Z,18.72
2023-06-06T08:09:38.703Z,19.80
2023-06-06T08:14:42.854Z,20.44
2023-06-06T08:19:45.274Z,19.65
2023-06-06T08:25:13.956Z,20.72
2023-06-06T08:30:21.879Z,20.45
2023-06-06T08:35:26.648Z,21.30
2023-06-06T08:40:33.629Z,21.69
2023-06-06T08:45:41.324Z,20.87
2023-06-06T08:50:45.026Z,21.72
2023-06-06T08:55:48.716Z,21.83
2023-06-06T09:00:51.886Z,21.45
2023-06-06T09:05:57.752Z,21.17
2023-06-06T09:11:04.835Z,22.08
2023-06-06T09:16:09.736Z,21.43
2023-06-06T09:21:14.498Z,22.10
2023-06-06T09:26:21.978Z,21.60
2023-06-06T09:31:34.300Z,21.44
2023-06-06T09:36:39.648Z,21.27
2023-06-06T09:41:43.863Z,22.14
2023-06-06T09:46:46.550Z,21.71
2023-06-06T09:51:49.861Z,21.85
2023-06-06T09:56:58.506Z,22.14
2023-06-06T10:02:09.476Z,22.17
2023-06-06T10:07:14.455Z,21.83
2023-06-06T10:12:18.372Z,21.99
2023-06-06T10:17:21.473Z,22.39
2023-06-06T10:22:25.760Z,21.72
2023-06-06T10:27:40.746Z,21.27
2023-06-06T10:33:04.176Z,21.98
2023-06-06T10:38:11.764Z,22.32
2023-06-06T10:43:33.281Z,22.76
2023-06-06T10:48:39.590Z,22.92
2023-06-06T10:53:43.264Z,22.59
2023-06-06T10:58:48.071Z,22.97
2023-06-06T11:03:54.001Z,23.63
2023-06-06T11:09:02.592Z,24.09
2023-06-06T11:14:09.586Z,25.22
2023-06-06T11:19:17.632Z,25.87
2023-06-06T11:24:21.285Z,23.96
2023-06-06T11:29:25.024Z,23.55
2023-06-06T11:34:29.704Z,24.02
2023-06-06T11:39:32.682Z,25.58
2023-06-06T11:45:28.397Z,25.97
2023-06-06T11:50:31.711Z,26.64
2023-06-06T12:01:17.739Z,24.80
2023-06-06T12:06:25.806Z,28.04
2023-06-06T12:11:31.917Z,23.79
2023-06-06T12:16:35.930Z,25.74
2023-06-06T12:21:49.681Z,25.19
2023-06-06T12:27:04.808Z,25.20
2023-06-06T12:32:16.819Z,25.93
2023-06-06T12:37:20.145Z,25.97
2023-06-06T12:42:26.731Z,24.35
2023-06-06T12:47:30.115Z,24.35
2023-06-06T12:52:32.838Z,25.50
2023-06-06T12:57:35.670Z,26.92
2023-06-06T13:02:43.853Z,26.16
2023-06-06T13:07:56.782Z,26.79
2023-06-06T13:12:59.363Z,26.15
2023-06-06T13:18:02.728Z,25.33
2023-06-06T13:23:07.130Z,25.05
2023-06-06T13:28:10.448Z,26.53
2023-06-06T13:33:13.662Z,26.48
2023-06-06T13:38:25.293Z,25.48
2023-06-06T13:43:28.228Z,26.42
2023-06-06T13:48:32.471Z,25.57
2023-06-06T13:53:35.531Z,25.35
2023-06-06T13:58:50.577Z,25.08
2023-06-06T14:03:55.274Z,25.47
2023-06-06T14:08:58.061Z,25.23
2023-06-06T14:14:02.262Z,26.42
2023-06-06T14:19:06.081Z,26.97
2023-06-06T14:24:10.271Z,25.38
2023-06-06T14:29:13.193Z,25.63
2023-06-06T14:34:16.341Z,25.99
2023-06-06T14:39:19.236Z,25.85
2023-06-06T14:44:24.527Z,25.44
2023-06-06T14:49:27.691Z,26.11
2023-06-06T14:54:31.847Z,25.49
2023-06-06T14:59:34.624Z,26.04
2023-06-06T15:04:37.630Z,25.94
2023-06-06T15:09:40.147Z,25.92
2023-06-06T15:14:43.578Z,26.29
2023-06-06T15:19:46.348Z,27.06
2023-06-06T15:24:49.842Z,27.75
2023-06-06T15:29:56.753Z,27.09
2023-06-06T15:35:00.163Z,27.97
2023-06-06T15:40:04.171Z,28.29
2023-06-06T15:45:07.596Z,28.21
2023-06-06T15:50:12.347Z,29.25
2023-06-06T15:55:17.944Z,28.86
2023-06-06T16:00:23.945Z,28.85
2023-06-06T16:05:27.673Z,29.74
2023-06-06T16:10:31.012Z,30.96
2023-06-06T16:15:34.080Z,33.12
2023-06-06T16:20:36.991Z,32.28
2023-06-06T16:25:39.444Z,33.17
2023-06-06T16:30:41.873Z,33.97
2023-06-06T16:35:44.420Z,35.63
2023-06-06T16:40:47.006Z,33.70
2023-06-06T16:45:49.421Z,34.37
2023-06-06T16:50:52.273Z,36.23
2023-06-06T16:55:56.075Z,37.30
2023-06-06T17:00:59.012Z,38.31
2023-06-06T17:06:01.931Z,36.98
2023-06-06T17:11:04.383Z,37.17
2023-06-06T17:16:08.300Z,38.51
2023-06-06T17:21:11.417Z,38.91
2023-06-06T17:26:14.352Z,39.80
2023-06-06T17:31:17.105Z,39.97
2023-06-06T17:36:19.790Z,40.73
2023-06-06T17:41:22.824Z,40.99
2023-06-06T17:46:26.475Z,41.47
2023-06-06T17:51:29.038Z,41.54
2023-06-06T17:56:33.994Z,40.17
2023-06-06T18:01:37.117Z,39.47
2023-06-06T18:06:40.069Z,40.75
2023-06-06T18:11:44.447Z,40.43
2023-06-06T18:16:47.256Z,39.05
2023-06-06T18:21:50.090Z,40.12
2023-06-06T18:26:52.554Z,40.10
2023-06-06T18:31:56.722Z,40.04
2023-06-06T18:36:59.227Z,40.75
2023-06-06T18:42:05.070Z,40.61
2023-06-06T18:47:07.854Z,41.12
2023-06-06T18:52:10.454Z,41.67
2023-06-06T18:57:15.691Z,41.56
2023-06-06T19:02:18.552Z,41.52
2023-06-06T19:07:21.484Z,40.93
2023-06-06T19:12:34.619Z,40.76
2023-06-06T19:17:42.512Z,40.14
2023-06-06T19:22:46.242Z,40.36
2023-06-06T19:27:48.902Z,40.35
2023-06-06T19:32:51.506Z,40.73
2023-06-06T19:37:54.434Z,41.50
2023-06-06T19:42:58.091Z,42.09
2023-06-06T19:48:00.584Z,42.79
2023-06-06T19:53:04.169Z,42.99
2023-06-06T19:58:06.967Z,44.05
2023-06-06T20:03:09.457Z,44.76
2023-06-06T20:08:12.542Z,44.48
2023-06-06T20:13:15.405Z,45.33
2023-06-06T20:18:17.966Z,46.10
2023-06-06T20:23:20.970Z,46.40
2023-06-06T20:28:23.894Z,46.45
2023-06-06T20:33:26.665Z,46.56
2023-06-06T20:38:29.769Z,46.67
2023-06-06T20:43:35.932Z,46.13
2023-06-06T20:48:38.983Z,46.26
2023-06-06T20:53:41.867Z,45.83
2023-06-06T20:58:44.851Z,46.15
2023-06-06T21:03:47.762Z,46.59
2023-06-06T21:08:50.673Z,46.95
2023-06-06T21:13:53.648Z,47.05
2023-06-06T21:18:56.061Z,47.59
2023-06-06T21:23:58.586Z,47.70
2023-06-06T21:29:02.629Z,47.71
2023-06-06T21:34:06.085Z,47.29
2023-06-06T21:39:09.387Z,47.46
2023-06-06T21:44:12.194Z,48.17
2023-06-06T21:49:14.912Z,48.65
2023-06-06T21:54:17.321Z,48.47
2023-06-06T21:59:21.324Z,48.53
2023-06-06T22:04:23.860Z,49.03
2023-06-06T22:09:26.609Z,48.77
2023-06-06T22:14:29.580Z,48.80
2023-06-06T22:19:31.956Z,49.55
2023-06-06T22:24:34.801Z,49.05
2023-06-06T22:29:37.709Z,49.01
2023-06-06T22:34:40.068Z,49.07
2023-06-06T22:39:44.448Z,48.79
2023-06-06T22:44:47.525Z,49.03
2023-06-06T22:49:51.600Z,49.28
2023-06-06T22:54:54.019Z,49.67
2023-06-06T22:59:57.021Z,49.99
2023-06-06T23:04:59.458Z,50.36
2023-06-06T23:10:02.786Z,51.28
2023-06-06T23:15:07.132Z,51.24
2023-06-06T23:20:14.382Z,50.91
2023-06-06T23:25:17.156Z,50.52
2023-06-06T23:30:20.212Z,50.18
2023-06-06T23:35:23.381Z,49.68
2023-06-06T23:40:25.848Z,50.37
2023-06-06T23:45:29.310Z,50.18
2023-06-06T23:50:33.256Z,50.63
2023-06-06T23:55:37.480Z,50.68
